Cincinnati (CVG/KCVG)

Map

Destinations

Information

Location
Cincinnati, KY
Local Time
20:57 / 8:57 pm
GMT Time
01:57 / 1:57 am
Gates
No FAA reported delays
METAR KCVG 250152Z 19010KT 10SM BKN220 10/M02 A2977 RMK AO2 SLP082 T01001022
TAF KCVG 242342Z 2500/2606 19007KT P6SM FEW250 FM250300 20009KT P6SM SCT250 WS020/22040KT FM250900 22010KT P6SM BKN100 FM251300 25006KT P6SM BKN025 FM251900 30008KT P6SM SCT030